Time;durP1;ratioP1;P1;durP2;ratioP2;P2;SDS_P1;SDS_P2;PMS_P1;PMS_P2;Temp;Humidity;BMP_temperature;BMP_pressure;BME280_temperature;BME280_humidity;BME280_pressure;Samples;Min_cycle;Max_cycle;Signal;HPM_P1;HPM_P2
2022/12/07 00:01:11;;;;;;;24.25;15.68;;;;;;;3.96;100.00;100546.31;4995408;28;20052;-72
2022/12/07 00:03:39;;;;;;;22.27;15.45;;;;;;;4.00;100.00;100546.25;5004126;28;20050;-72
2022/12/07 00:06:08;;;;;;;27.38;17.13;;;;;;;3.87;100.00;100519.41;5001899;28;21142;-72
2022/12/07 00:08:36;;;;;;;26.83;15.43;;;;;;;3.96;100.00;100541.09;5004459;28;20622;-72
2022/12/07 00:11:08;;;;;;;28.95;17.17;;;;;;;3.93;100.00;100534.16;4993106;28;20046;-72
2022/12/07 00:13:35;;;;;;;27.42;16.10;;;;;;;3.90;100.00;100533.34;5003329;28;20049;-72
2022/12/07 00:16:04;;;;;;;24.52;15.10;;;;;;;3.91;100.00;100535.09;5002606;28;20046;-73
2022/12/07 00:18:31;;;;;;;26.48;16.45;;;;;;;3.94;100.00;100529.75;5007474;28;20132;-71
2022/12/07 00:21:08;;;;;;;26.00;15.63;;;;;;;4.01;100.00;100523.53;4988264;28;20082;-71
2022/12/07 00:23:35;;;;;;;26.50;16.35;;;;;;;4.04;100.00;100526.09;5003543;28;20388;-71
2022/12/07 00:26:07;;;;;;;24.80;15.27;;;;;;;4.06;100.00;100524.31;5004415;28;20148;-72
2022/12/07 00:28:34;;;;;;;25.75;16.40;;;;;;;4.03;100.00;100517.38;5004820;28;20051;-71
2022/12/07 00:31:06;;;;;;;25.75;15.35;;;;;;;4.07;100.00;100520.81;4997271;28;20129;-71
2022/12/07 00:33:33;;;;;;;27.08;15.15;;;;;;;4.10;100.00;100512.88;5002291;28;20512;-71
2022/12/07 00:36:02;;;;;;;22.33;14.05;;;;;;;4.09;100.00;100503.31;4997069;28;20679;-71
2022/12/07 00:38:30;;;;;;;23.10;15.25;;;;;;;4.17;100.00;100498.78;5007247;28;20049;-71
2022/12/07 00:41:02;;;;;;;25.83;15.45;;;;;;;4.18;100.00;100488.25;4994412;28;20420;-71
2022/12/07 00:43:29;;;;;;;23.58;14.82;;;;;;;4.21;100.00;100495.22;5002181;28;20092;-71
2022/12/07 00:45:56;;;;;;;26.02;15.75;;;;;;;4.23;100.00;100496.03;4998367;28;20097;-72
2022/12/07 00:48:23;;;;;;;24.05;14.70;;;;;;;4.14;100.00;100493.59;5004200;28;20050;-70
2022/12/07 00:50:50;;;;;;;24.52;14.82;;;;;;;4.06;100.00;100503.38;4999899;28;20046;-71
2022/12/07 00:53:17;;;;;;;23.60;15.10;;;;;;;4.08;100.00;100506.81;5001346;28;20650;-72
2022/12/07 00:55:44;;;;;;;23.38;15.18;;;;;;;4.13;100.00;100502.34;5004312;28;20050;-71
2022/12/07 00:58:11;;;;;;;26.65;14.77;;;;;;;4.13;100.00;100489.22;5002532;28;20193;-73
2022/12/07 01:00:41;;;;;;;23.15;14.88;;;;;;;4.13;100.00;100490.09;4999654;28;20069;-72
2022/12/07 01:03:09;;;;;;;22.05;13.95;;;;;;;4.10;100.00;100491.91;4998681;28;20061;-71
2022/12/07 01:05:35;;;;;;;24.20;15.10;;;;;;;3.92;100.00;100501.00;5004243;28;20050;-70
2022/12/07 01:08:03;;;;;;;22.65;14.48;;;;;;;3.88;100.00;100510.66;4998683;28;20046;-71
2022/12/07 01:10:30;;;;;;;24.92;14.60;;;;;;;3.71;100.00;100477.78;4998894;28;20057;-71
2022/12/07 01:12:57;;;;;;;25.73;15.55;;;;;;;3.85;100.00;100495.00;4993458;28;20064;-71
2022/12/07 01:15:25;;;;;;;22.50;14.50;;;;;;;3.88;100.00;100499.31;5002799;28;20502;-72
2022/12/07 01:17:52;;;;;;;26.52;14.38;;;;;;;3.94;100.00;100487.84;5006356;28;20060;-72
2022/12/07 01:20:19;;;;;;;24.40;14.15;;;;;;;3.94;100.00;100488.72;5001085;28;20173;-72
2022/12/07 01:22:45;;;;;;;23.65;14.05;;;;;;;3.96;100.00;100486.94;5000295;28;20065;-72
2022/12/07 01:25:12;;;;;;;24.30;13.68;;;;;;;3.94;100.00;100478.22;5002944;28;20058;-71
2022/12/07 01:27:38;;;;;;;22.55;13.35;;;;;;;3.99;100.00;100483.41;5004972;28;20048;-72
2022/12/07 01:30:06;;;;;;;21.13;12.98;;;;;;;4.03;100.00;100480.69;5005566;28;20081;-71
2022/12/07 01:32:33;;;;;;;23.35;13.80;;;;;;;3.99;100.00;100481.63;4999156;28;20073;-72
2022/12/07 01:35:00;;;;;;;22.08;13.88;;;;;;;3.99;100.00;100486.88;5005116;28;20080;-72
2022/12/07 01:37:26;;;;;;;23.90;13.05;;;;;;;4.00;100.00;100485.13;5006368;28;20056;-71
2022/12/07 01:39:53;;;;;;;23.23;13.45;;;;;;;3.98;100.00;100484.28;5008318;28;20128;-72
2022/12/07 01:42:20;;;;;;;22.98;12.77;;;;;;;3.99;100.00;100491.25;4997401;28;20069;-72
2022/12/07 01:45:18;;;;;;;23.60;13.05;;;;;;;3.99;100.00;100496.50;5008748;28;20046;-72
2022/12/07 01:47:53;;;;;;;21.55;13.13;;;;;;;3.98;100.00;100489.53;5005201;28;20045;-71
2022/12/07 01:50:21;;;;;;;20.00;12.70;;;;;;;3.93;100.00;100499.25;5007146;28;20169;-71
2022/12/07 01:52:52;;;;;;;23.63;13.75;;;;;;;3.79;100.00;100495.09;5003024;28;20125;-72
2022/12/07 01:55:20;;;;;;;21.05;13.13;;;;;;;3.70;100.00;100497.03;5011012;28;20540;-71
2022/12/07 01:57:52;;;;;;;24.25;13.57;;;;;;;3.63;100.00;100488.41;5009971;28;20125;-71
2022/12/07 02:00:21;;;;;;;22.13;13.23;;;;;;;3.58;100.00;100489.38;5009412;28;20057;-71
2022/12/07 02:02:53;;;;;;;22.98;13.23;;;;;;;3.55;100.00;100494.66;4996809;28;20050;-71
2022/12/07 02:05:20;;;;;;;22.83;12.90;;;;;;;3.41;100.00;100453.88;5010613;28;20049;-70
2022/12/07 02:07:48;;;;;;;22.05;12.55;;;;;;;3.64;100.00;100481.41;5008761;28;20737;-72
2022/12/07 02:10:22;;;;;;;25.17;12.95;;;;;;;3.67;100.00;100482.22;5011432;28;20131;-71
2022/12/07 02:12:55;;;;;;;23.88;13.63;;;;;;;3.57;100.00;100477.19;4994217;28;20062;-74
2022/12/07 02:15:28;;;;;;;27.27;14.68;;;;;;;3.43;100.00;100469.56;5006478;28;20050;-72
2022/12/07 02:18:10;;;;;;;25.23;12.93;;;;;;;3.46;100.00;100477.38;5001479;28;20137;-72
2022/12/07 02:20:54;;;;;;;23.10;13.27;;;;;;;3.53;100.00;100466.75;5001286;28;20046;-72
2022/12/07 02:23:27;;;;;;;20.73;12.10;;;;;;;3.57;100.00;100467.56;4992070;28;20116;-72
2022/12/07 02:26:15;;;;;;;22.10;12.43;;;;;;;3.47;100.00;100460.75;5002718;28;20177;-74
2022/12/07 02:29:11;;;;;;;20.55;12.00;;;;;;;3.40;100.00;100465.22;5001269;28;20419;-72
2022/12/07 02:32:03;;;;;;;26.85;12.40;;;;;;;3.38;100.00;100460.91;4968770;28;20419;-71
2022/12/07 02:34:50;;;;;;;24.17;12.30;;;;;;;3.42;100.00;100460.84;5005564;28;20075;-72
2022/12/07 02:37:42;;;;;;;21.48;12.00;;;;;;;3.46;100.00;100457.25;5008597;28;20041;-72
2022/12/07 02:40:20;;;;;;;21.50;11.48;;;;;;;3.50;100.00;100455.47;4975690;28;20124;-72
2022/12/07 02:42:53;;;;;;;21.25;11.77;;;;;;;3.51;100.00;100454.56;4992882;28;20438;-71
2022/12/07 02:45:22;;;;;;;19.45;11.95;;;;;;;3.38;100.00;100439.97;5007494;28;20081;-71
2022/12/07 02:47:52;;;;;;;20.65;11.73;;;;;;;3.39;100.00;100455.66;5006112;28;20050;-71
2022/12/07 02:50:22;;;;;;;21.60;12.00;;;;;;;3.31;100.00;100454.91;5001706;28;20573;-71
2022/12/07 02:52:49;;;;;;;18.50;11.55;;;;;;;3.26;100.00;100456.75;4997718;28;20131;-72
2022/12/07 02:55:19;;;;;;;20.83;11.95;;;;;;;3.23;100.00;100451.56;5007413;28;20052;-71
2022/12/07 02:58:03;;;;;;;23.25;11.32;;;;;;;3.23;100.00;100458.53;5004596;28;20048;-71
2022/12/07 03:00:34;;;;;;;21.02;11.48;;;;;;;3.24;100.00;100458.53;5006004;28;20088;-72
2022/12/07 03:03:07;;;;;;;20.42;11.50;;;;;;;3.21;100.00;100458.56;4997020;28;20056;-72
2022/12/07 03:06:20;;;;;;;19.17;11.00;;;;;;;3.25;100.00;100460.25;5006158;28;20074;-72
2022/12/07 03:09:19;;;;;;;19.85;10.65;;;;;;;3.27;100.00;100452.38;5007810;28;20050;-72
2022/12/07 03:11:56;;;;;;;18.98;11.23;;;;;;;3.26;100.00;100456.75;5001513;28;20042;-72
2022/12/07 03:14:30;;;;;;;21.88;11.02;;;;;;;3.08;100.00;100420.41;5002638;28;20068;-72
2022/12/07 03:17:21;;;;;;;17.27;10.73;;;;;;;3.22;100.00;100448.97;5005789;28;20422;-72
2022/12/07 03:19:50;;;;;;;18.40;10.93;;;;;;;3.19;100.00;100426.31;4998924;28;20436;-72
2022/12/07 03:22:17;;;;;;;22.65;10.93;;;;;;;3.24;100.00;100421.88;4994119;28;20042;-71
2022/12/07 03:24:57;;;;;;;21.08;11.02;;;;;;;3.40;100.00;100440.81;5001408;28;20048;-71
2022/12/07 03:27:55;;;;;;;17.52;10.10;;;;;;;3.41;100.00;100442.53;4996072;28;20217;-73
2022/12/07 03:30:27;;;;;;;17.42;10.85;;;;;;;3.46;100.00;100443.34;5002091;28;20575;-72
2022/12/07 03:33:28;;;;;;;19.17;10.00;;;;;;;3.50;100.00;100439.75;4993172;28;20046;-72
2022/12/07 03:36:08;;;;;;;16.17;10.02;;;;;;;3.61;100.00;100435.22;5000986;28;20430;-71
2022/12/07 03:38:46;;;;;;;15.60;9.73;;;;;;;3.67;100.00;100439.44;5005356;28;20053;-72
2022/12/07 03:41:26;;;;;;;15.75;9.73;;;;;;;3.71;100.00;100428.91;5001937;28;20495;-71
2022/12/07 03:43:54;;;;;;;17.90;10.10;;;;;;;3.73;100.00;100427.13;4996384;28;20422;-71
2022/12/07 03:46:50;;;;;;;18.73;9.93;;;;;;;3.76;100.00;100424.47;5006389;28;20390;-71
2022/12/07 03:49:58;;;;;;;17.08;9.50;;;;;;;3.68;100.00;100431.56;5002661;28;20544;-71
2022/12/07 03:53:04;;;;;;;16.95;9.63;;;;;;;3.64;100.00;100437.75;4990937;28;20615;-71
2022/12/07 03:55:35;;;;;;;14.38;9.23;;;;;;;3.62;100.00;100418.56;4999506;28;20045;-71
2022/12/07 03:58:06;;;;;;;17.13;9.75;;;;;;;3.66;100.00;100416.78;5004123;28;20053;-71
2022/12/07 04:00:33;;;;;;;16.60;10.10;;;;;;;3.71;100.00;100418.44;5006220;28;20054;-72
2022/12/07 04:02:59;;;;;;;19.45;10.38;;;;;;;3.62;100.00;100386.31;4993899;28;20054;-72
2022/12/07 04:05:26;;;;;;;16.58;9.40;;;;;;;3.75;100.00;100401.78;5002884;28;20498;-71
2022/12/07 04:07:53;;;;;;;16.45;10.00;;;;;;;3.79;100.00;100410.41;5002897;28;20050;-71
2022/12/07 04:10:19;;;;;;;15.40;9.45;;;;;;;3.73;100.00;100400.94;5006132;28;20056;-71
2022/12/07 04:12:46;;;;;;;15.10;9.43;;;;;;;3.80;100.00;100422.63;4990468;28;20054;-71
2022/12/07 04:15:13;;;;;;;17.10;9.30;;;;;;;3.84;100.00;100416.44;5006241;28;20046;-71
2022/12/07 04:17:39;;;;;;;15.38;9.20;;;;;;;3.76;100.00;100421.84;5003403;28;20049;-71
2022/12/07 04:20:07;;;;;;;15.85;9.57;;;;;;;3.71;100.00;100417.56;5002980;28;20046;-72
2022/12/07 04:22:33;;;;;;;16.17;9.40;;;;;;;3.68;100.00;100409.75;4993393;28;20077;-71
2022/12/07 04:25:00;;;;;;;16.00;9.35;;;;;;;3.54;100.00;100399.53;5003192;28;20501;-71
2022/12/07 04:27:27;;;;;;;16.85;9.75;;;;;;;3.63;100.00;100422.94;4990666;28;20034;-71
2022/12/07 04:29:55;;;;;;;15.70;9.23;;;;;;;3.59;100.00;100423.91;5005815;28;20145;-71
2022/12/07 04:32:22;;;;;;;14.15;9.10;;;;;;;3.60;100.00;100425.63;4994804;28;20081;-71
2022/12/07 04:34:49;;;;;;;15.73;9.07;;;;;;;3.65;100.00;100429.00;4999303;28;20439;-71
2022/12/07 04:37:21;;;;;;;15.60;8.73;;;;;;;3.72;100.00;100420.16;5006319;28;20053;-73
2022/12/07 04:39:47;;;;;;;14.30;8.63;;;;;;;3.79;100.00;100413.03;4998858;28;20046;-73
2022/12/07 04:42:14;;;;;;;17.00;9.20;;;;;;;3.84;100.00;100416.44;4998756;28;20485;-73
2022/12/07 04:44:41;;;;;;;15.88;9.25;;;;;;;3.88;100.00;100418.09;5000163;28;20088;-72
2022/12/07 04:47:07;;;;;;;13.60;8.70;;;;;;;3.85;100.00;100412.91;5004743;28;20494;-71
2022/12/07 04:49:34;;;;;;;16.02;8.98;;;;;;;3.83;100.00;100422.56;5004650;28;20049;-71
2022/12/07 04:52:01;;;;;;;17.83;10.05;;;;;;;3.88;100.00;100415.50;4998473;28;20077;-71
2022/12/07 04:54:28;;;;;;;15.10;8.70;;;;;;;3.74;100.00;100386.94;4997615;28;20498;-72
2022/12/07 04:56:54;;;;;;;14.55;9.32;;;;;;;3.95;100.00;100406.59;5000692;28;20077;-71
2022/12/07 04:59:21;;;;;;;14.38;8.68;;;;;;;4.00;100.00;100410.00;5004471;28;20144;-71
2022/12/07 05:01:47;;;;;;;14.45;8.82;;;;;;;3.96;100.00;100413.56;5003178;28;20054;-72
2022/12/07 05:04:15;;;;;;;15.15;8.00;;;;;;;3.99;100.00;100407.41;4999646;28;20172;-72
2022/12/07 05:06:42;;;;;;;12.15;8.30;;;;;;;3.98;100.00;100405.69;5004049;28;20174;-72
2022/12/07 05:09:09;;;;;;;15.48;8.88;;;;;;;4.01;100.00;100410.88;5001241;28;20041;-71
2022/12/07 05:11:38;;;;;;;17.52;9.00;;;;;;;4.02;100.00;100407.34;5002348;28;20056;-72
2022/12/07 05:14:18;;;;;;;14.97;9.27;;;;;;;4.04;100.00;100414.28;4997911;28;20065;-72
2022/12/07 05:16:47;;;;;;;13.70;8.13;;;;;;;4.03;100.00;100404.72;5003741;28;20056;-71
2022/12/07 05:19:14;;;;;;;16.08;8.35;;;;;;;4.05;100.00;100415.16;5003591;28;20545;-71
2022/12/07 05:21:41;;;;;;;16.08;8.90;;;;;;;4.02;100.00;100396.88;5004333;28;20050;-71
2022/12/07 05:24:10;;;;;;;14.60;8.80;;;;;;;4.08;100.00;100407.25;4994974;28;20038;-71
2022/12/07 05:26:37;;;;;;;16.83;9.20;;;;;;;4.09;100.00;100407.19;4999762;28;20061;-72
2022/12/07 05:29:04;;;;;;;14.73;8.27;;;;;;;4.10;100.00;100406.28;5002299;28;20078;-71
2022/12/07 05:31:31;;;;;;;16.50;9.40;;;;;;;4.12;100.00;100408.88;5001513;28;20054;-71
2022/12/07 05:33:57;;;;;;;16.00;9.38;;;;;;;4.10;100.00;100414.16;4997494;28;20448;-71
2022/12/07 05:36:24;;;;;;;15.45;8.55;;;;;;;4.14;100.00;100409.72;5002705;28;20156;-71
2022/12/07 05:38:51;;;;;;;20.90;10.00;;;;;;;4.09;100.00;100407.19;5003215;28;20529;-71
2022/12/07 05:44:04;;;;;;;15.80;9.20;;;;;;;3.90;100.00;100400.59;4993091;28;20676;-72
2022/12/07 05:46:31;;;;;;;16.88;9.65;;;;;;;3.92;100.00;100414.53;5004437;28;20150;-72
2022/12/07 05:48:58;;;;;;;18.92;10.27;;;;;;;3.91;100.00;100414.56;5000736;28;20054;-72
2022/12/07 05:51:25;;;;;;;17.77;10.23;;;;;;;3.93;100.00;100410.16;4999667;28;20486;-71
2022/12/07 05:53:51;;;;;;;14.57;9.68;;;;;;;4.03;100.00;100412.56;4994594;28;20141;-72
2022/12/07 05:56:18;;;;;;;15.27;9.52;;;;;;;4.10;100.00;100403.66;5002931;28;20074;-71
2022/12/07 06:01:29;;;;;;;20.05;10.63;;;;;;;4.21;100.00;100401.72;5004293;28;20077;-72
2022/12/07 06:03:56;;;;;;;18.70;10.50;;;;;;;4.28;100.00;100407.66;4995466;28;20064;-71
2022/12/07 06:06:22;;;;;;;18.10;11.52;;;;;;;4.27;100.00;100400.69;5005019;28;20052;-73
2022/12/07 06:08:49;;;;;;;17.13;10.68;;;;;;;4.22;100.00;100392.09;5008320;28;20140;-71
2022/12/07 06:14:01;;;;;;;19.63;10.52;;;;;;;4.15;100.00;100403.59;4993369;28;20133;-71
2022/12/07 06:16:28;;;;;;;20.45;11.10;;;;;;;4.11;100.00;100400.16;5007229;28;20072;-71
2022/12/07 06:18:54;;;;;;;18.08;10.70;;;;;;;4.09;100.00;100404.56;5003791;28;20046;-71
2022/12/07 06:21:21;;;;;;;16.90;10.75;;;;;;;4.05;100.00;100396.81;5002452;28;20176;-71
2022/12/07 06:23:47;;;;;;;17.73;10.48;;;;;;;4.08;100.00;100396.75;4994772;28;20137;-71
2022/12/07 06:26:14;;;;;;;18.42;10.93;;;;;;;4.12;100.00;100401.03;5008257;28;20049;-71
2022/12/07 06:28:41;;;;;;;18.92;10.48;;;;;;;4.09;100.00;100398.50;5007544;28;20536;-71
2022/12/07 06:31:07;;;;;;;17.60;10.93;;;;;;;3.97;100.00;100373.38;5005626;28;20141;-71
2022/12/07 06:33:39;;;;;;;19.33;11.13;;;;;;;4.14;100.00;100399.22;4997180;28;20061;-71
2022/12/07 06:36:06;;;;;;;20.02;11.35;;;;;;;4.14;100.00;100401.84;5004700;28;20042;-72
2022/12/07 06:38:32;;;;;;;17.67;11.32;;;;;;;4.19;100.00;100405.25;5006747;28;20132;-72
2022/12/07 06:40:59;;;;;;;20.48;11.25;;;;;;;4.20;100.00;100392.13;5002727;28;20054;-72
2022/12/07 06:43:26;;;;;;;17.80;10.90;;;;;;;4.22;100.00;100392.09;4994397;28;20042;-72
2022/12/07 06:45:52;;;;;;;18.90;11.07;;;;;;;4.24;100.00;100392.94;5001202;28;20451;-72
2022/12/07 06:48:19;;;;;;;19.00;11.35;;;;;;;4.14;100.00;100394.84;5002742;28;20058;-72
2022/12/07 06:50:46;;;;;;;21.20;11.90;;;;;;;3.95;100.00;100374.28;5002776;28;20049;-72
2022/12/07 06:53:19;;;;;;;23.65;12.75;;;;;;;4.07;100.00;100410.75;4991245;28;20878;-72
2022/12/07 06:55:46;;;;;;;23.70;12.98;;;;;;;4.02;100.00;100409.97;4998318;28;20124;-72
2022/12/07 06:58:13;;;;;;;20.10;11.48;;;;;;;4.05;100.00;100417.78;5003701;28;20478;-70
2022/12/07 07:00:39;;;;;;;21.60;12.15;;;;;;;4.04;100.00;100422.16;5007440;28;20133;-72
2022/12/07 07:03:06;;;;;;;23.40;12.45;;;;;;;4.02;100.00;100417.84;4997754;28;20046;-71
2022/12/07 07:05:32;;;;;;;22.40;12.98;;;;;;;4.01;100.00;100419.59;5002808;28;20107;-71
2022/12/07 07:07:59;;;;;;;21.63;12.82;;;;;;;3.99;100.00;100412.66;5006536;28;20057;-71
2022/12/07 07:10:45;;;;;;;24.65;12.88;;;;;;;3.99;100.00;100420.50;4997442;28;20046;-70
2022/12/07 07:13:13;;;;;;;24.40;13.43;;;;;;;4.01;100.00;100422.22;4993603;28;20092;-70
2022/12/07 07:15:40;;;;;;;22.75;12.98;;;;;;;3.96;100.00;100417.94;5006099;28;20120;-71
2022/12/07 07:18:06;;;;;;;21.27;12.93;;;;;;;4.08;100.00;100436.06;5004591;28;20144;-72
2022/12/07 07:20:33;;;;;;;21.05;12.88;;;;;;;4.11;100.00;100433.38;5005885;28;20080;-73
2022/12/07 07:23:00;;;;;;;24.60;12.85;;;;;;;4.18;100.00;100438.47;4998172;28;20119;-73
2022/12/07 07:25:27;;;;;;;21.20;12.88;;;;;;;4.24;100.00;100434.88;5001041;28;20045;-71
2022/12/07 07:27:53;;;;;;;23.45;13.20;;;;;;;4.18;100.00;100407.00;4999113;28;20057;-71
2022/12/07 07:30:20;;;;;;;24.25;13.27;;;;;;;4.24;100.00;100411.28;4996575;28;20046;-70
2022/12/07 07:32:46;;;;;;;23.75;13.30;;;;;;;4.42;100.00;100430.97;4996923;28;20209;-71
2022/12/07 07:35:13;;;;;;;24.15;13.77;;;;;;;4.45;100.00;100429.16;4998633;28;20450;-72
2022/12/07 07:37:40;;;;;;;23.75;13.77;;;;;;;4.47;100.00;100430.00;4997711;28;20076;-72
2022/12/07 07:40:09;;;;;;;21.30;13.70;;;;;;;4.51;100.00;100439.53;5004331;28;20037;-71
2022/12/07 07:42:35;;;;;;;23.38;13.15;;;;;;;4.46;100.00;100424.78;4998338;28;20077;-71
2022/12/07 07:45:02;;;;;;;21.80;12.88;;;;;;;4.49;100.00;100429.97;4991507;28;20354;-72
2022/12/07 07:47:29;;;;;;;19.60;13.18;;;;;;;4.50;100.00;100429.94;4998863;28;20054;-71
2022/12/07 07:49:56;;;;;;;23.38;13.23;;;;;;;4.51;100.00;100431.66;5001569;28;20042;-72
2022/12/07 07:52:23;;;;;;;20.95;12.02;;;;;;;4.42;100.00;100438.84;5005548;28;20061;-71
2022/12/07 07:54:50;;;;;;;24.20;12.43;;;;;;;4.31;100.00;100436.44;4996704;28;20153;-72
2022/12/07 07:57:17;;;;;;;22.05;12.88;;;;;;;4.29;100.00;100440.84;5003740;28;20050;-71
2022/12/07 07:59:44;;;;;;;20.63;12.20;;;;;;;4.29;100.00;100440.84;5001341;28;20060;-71
2022/12/07 08:02:16;;;;;;;20.52;12.20;;;;;;;4.18;100.00;100409.63;5005419;28;20042;-72
2022/12/07 08:04:43;;;;;;;22.73;13.27;;;;;;;4.18;100.00;100407.00;4991958;28;20052;-72
2022/12/07 08:07:10;;;;;;;23.13;12.40;;;;;;;4.37;100.00;100433.72;5005928;28;20042;-73
2022/12/07 08:09:37;;;;;;;21.90;13.18;;;;;;;4.33;100.00;100434.66;5004439;28;20422;-72
2022/12/07 08:12:04;;;;;;;22.20;12.65;;;;;;;4.29;100.00;100434.75;4998535;28;20042;-73
2022/12/07 08:14:31;;;;;;;21.20;13.13;;;;;;;4.26;100.00;100426.94;4995695;28;20510;-72
2022/12/07 08:16:58;;;;;;;24.50;13.00;;;;;;;4.23;100.00;100430.50;5004268;28;20045;-72
2022/12/07 08:19:24;;;;;;;19.92;12.23;;;;;;;4.29;100.00;100427.75;5002409;28;20880;-73
2022/12/07 08:21:51;;;;;;;19.52;11.15;;;;;;;4.15;100.00;100411.44;5004463;28;20241;-71
2022/12/07 08:24:17;;;;;;;19.65;10.68;;;;;;;4.32;100.00;100445.19;4995784;28;20053;-70
2022/12/07 08:26:44;;;;;;;17.70;10.73;;;;;;;4.33;100.00;100447.78;5001510;28;20642;-71
2022/12/07 08:29:11;;;;;;;16.45;10.27;;;;;;;4.38;100.00;100443.31;5000086;28;20045;-71
2022/12/07 08:31:37;;;;;;;14.40;9.05;;;;;;;4.52;100.00;100446.50;5002270;28;20131;-72
2022/12/07 08:34:04;;;;;;;14.93;9.57;;;;;;;4.67;100.00;100445.28;4995278;28;20046;-70
2022/12/07 08:36:30;;;;;;;16.23;9.32;;;;;;;4.77;100.00;100438.06;4998751;28;20636;-73
2022/12/07 08:38:57;;;;;;;18.88;10.07;;;;;;;4.78;100.00;100418.81;5005077;28;20053;-71
2022/12/07 08:41:44;;;;;;;17.50;10.40;;;;;;;4.91;100.00;100438.63;4992411;28;20042;-71
2022/12/07 08:44:10;;;;;;;17.33;9.85;;;;;;;4.85;100.00;100415.16;4997956;28;20050;-71
2022/12/07 08:46:45;;;;;;;16.33;9.30;;;;;;;5.05;100.00;100441.78;4996110;28;20068;-71
2022/12/07 08:49:16;;;;;;;20.13;9.57;;;;;;;4.94;100.00;100443.81;5001994;28;20054;-71
2022/12/07 08:51:43;;;;;;;15.68;9.40;;;;;;;4.93;100.00;100452.56;5005084;28;20062;-71
2022/12/07 08:54:14;;;;;;;15.05;8.60;;;;;;;4.93;100.00;100452.56;4991189;28;20064;-71
2022/12/07 08:56:41;;;;;;;15.48;7.82;;;;;;;4.82;100.00;100441.47;4995495;28;20136;-71
2022/12/07 08:59:08;;;;;;;15.77;8.65;;;;;;;4.77;100.00;100451.19;4996244;28;20056;-70
2022/12/07 09:01:34;;;;;;;11.75;7.88;;;;;;;4.69;100.00;100447.88;5000588;28;20568;-71
2022/12/07 09:04:01;;;;;;;13.80;8.80;;;;;;;4.72;100.00;100453.06;4991571;28;20058;-71
2022/12/07 09:06:28;;;;;;;11.63;8.40;;;;;;;4.79;100.00;100459.88;4989574;28;20042;-71
2022/12/07 09:08:59;;;;;;;15.00;9.18;;;;;;;4.77;100.00;100444.19;5001039;28;20046;-71
2022/12/07 09:11:26;;;;;;;16.95;9.55;;;;;;;4.90;100.00;100452.63;4996708;28;20140;-71
2022/12/07 09:13:54;;;;;;;16.02;10.02;;;;;;;4.96;100.00;100452.50;5003505;28;20058;-72
2022/12/07 09:16:21;;;;;;;16.33;9.68;;;;;;;5.03;100.00;100455.88;4994816;28;20057;-73
2022/12/07 09:18:48;;;;;;;24.50;10.15;;;;;;;5.07;100.00;100447.84;4990693;28;20066;-70
2022/12/07 09:21:14;;;;;;;21.63;10.82;;;;;;;5.11;100.00;100451.28;4999258;28;20137;-72
2022/12/07 09:23:42;;;;;;;15.52;9.65;;;;;;;4.99;100.00;100436.69;4989292;28;20057;-73
2022/12/07 09:26:09;;;;;;;13.90;9.90;;;;;;;5.07;100.00;100458.34;4994041;28;20489;-70
2022/12/07 09:28:36;;;;;;;15.32;9.85;;;;;;;5.07;100.00;100465.38;4999898;28;20054;-71
2022/12/07 09:31:05;;;;;;;16.02;10.00;;;;;;;5.12;100.00;100451.25;4996691;28;20103;-72
2022/12/07 09:33:58;;;;;;;16.17;10.07;;;;;;;5.30;100.00;100473.56;4990217;28;20050;-71
2022/12/07 09:36:27;;;;;;;18.88;10.13;;;;;;;5.11;100.00;100462.66;5002174;28;20054;-72
2022/12/07 09:38:54;;;;;;;14.15;9.90;;;;;;;4.98;100.00;100474.31;5001870;28;20120;-72
2022/12/07 09:41:21;;;;;;;14.77;9.98;;;;;;;4.84;100.00;100461.53;5001761;28;20050;-72
2022/12/07 09:43:48;;;;;;;15.02;9.18;;;;;;;4.83;100.00;100458.94;4995052;28;20592;-72
2022/12/07 09:46:18;;;;;;;15.50;9.77;;;;;;;4.83;100.00;100461.56;4998662;28;20064;-72
2022/12/07 09:48:47;;;;;;;15.57;8.80;;;;;;;4.83;100.00;100467.66;5007933;28;20058;-71
2022/12/07 09:51:21;;;;;;;15.80;8.55;;;;;;;4.89;100.00;100464.88;5005686;28;20041;-71
2022/12/07 09:53:53;;;;;;;12.38;8.20;;;;;;;4.92;100.00;100448.22;5003002;28;20165;-71
2022/12/07 09:56:21;;;;;;;12.23;8.13;;;;;;;5.16;100.00;100466.03;4991997;28;20081;-71
2022/12/07 09:58:49;;;;;;;14.30;8.63;;;;;;;5.27;100.00;100450.88;5005803;28;20050;-71
2022/12/07 10:01:21;;;;;;;12.77;8.02;;;;;;;5.31;100.00;100449.03;4999699;28;20125;-71
2022/12/07 10:04:12;;;;;;;13.73;8.10;;;;;;;5.28;100.00;100449.13;4995905;28;20049;-70
2022/12/07 10:06:39;;;;;;;13.98;8.35;;;;;;;5.32;100.00;100440.28;5002107;28;20057;-71
2022/12/07 10:09:14;;;;;;;12.70;8.40;;;;;;;5.32;100.00;100445.53;4999673;28;20052;-70
2022/12/07 10:12:10;;;;;;;13.38;8.32;;;;;;;5.34;100.00;100441.09;4996691;28;20068;-71
2022/12/07 10:14:39;;;;;;;17.73;8.15;;;;;;;5.31;100.00;100435.06;4993424;28;20054;-71
2022/12/07 10:17:40;;;;;;;10.60;7.43;;;;;;;5.43;100.00;100434.75;5002367;28;20077;-71
2022/12/07 10:20:18;;;;;;;12.88;7.25;;;;;;;5.73;100.00;100439.19;4997770;28;20128;-70
2022/12/07 10:22:56;;;;;;;12.90;6.80;;;;;;;5.86;100.00;100435.31;4996960;28;20042;-71
2022/12/07 10:25:27;;;;;;;9.93;5.85;;;;;;;5.95;100.00;100432.50;4994452;28;20050;-72
2022/12/07 10:28:02;;;;;;;9.07;4.82;;;;;;;5.98;100.00;100432.41;4997675;28;20049;-70
2022/12/07 10:30:31;;;;;;;7.40;4.38;;;;;;;5.93;100.00;100436.94;4996938;28;20145;-72
2022/12/07 10:32:58;;;;;;;8.10;4.55;;;;;;;5.86;100.00;100432.69;4997634;28;20145;-72
2022/12/07 10:35:29;;;;;;;6.70;3.90;;;;;;;5.75;100.00;100419.00;4996383;28;20061;-73
2022/12/07 10:37:59;;;;;;;5.10;3.60;;;;;;;5.68;100.00;100419.19;5000443;28;20058;-71
2022/12/07 10:40:33;;;;;;;5.20;3.58;;;;;;;5.79;100.00;100430.28;4995972;28;20056;-70
2022/12/07 10:43:16;;;;;;;7.93;3.45;;;;;;;5.88;100.00;100425.69;4997379;28;20129;-71
2022/12/07 10:46:29;;;;;;;10.23;4.60;;;;;;;5.92;100.00;100421.22;4994686;28;20915;-71
2022/12/07 10:49:05;;;;;;;5.07;3.03;;;;;;;5.95;100.00;100415.88;4975831;28;20511;-72
2022/12/07 10:51:51;;;;;;;5.28;3.08;;;;;;;5.87;100.00;100408.16;4994626;28;20054;-71
2022/12/07 10:54:38;;;;;;;9.60;3.53;;;;;;;5.91;100.00;100404.56;4994350;28;20398;-70
2022/12/07 10:57:32;;;;;;;7.50;3.67;;;;;;;6.08;100.00;100405.88;4995679;28;20054;-71
2022/12/07 11:00:20;;;;;;;6.93;3.28;;;;;;;6.15;100.00;100399.50;5000929;28;20121;-72
2022/12/07 11:03:08;;;;;;;5.78;3.28;;;;;;;6.05;100.00;100375.28;5007858;28;20058;-71
2022/12/07 11:05:48;;;;;;;5.32;3.20;;;;;;;6.27;100.00;100399.19;4993446;28;20046;-71
2022/12/07 11:08:47;;;;;;;6.70;3.45;;;;;;;6.29;100.00;100397.38;5007927;28;20053;-70
2022/12/07 11:11:21;;;;;;;8.18;3.58;;;;;;;6.25;99.50;100399.22;4997709;28;20417;-70
2022/12/07 11:13:56;;;;;;;7.25;3.42;;;;;;;6.11;99.79;100374.25;4999498;28;20054;-71
2022/12/07 11:16:47;;;;;;;6.05;3.55;;;;;;;6.24;99.36;100397.50;4991118;28;20141;-72
2022/12/07 11:19:26;;;;;;;7.78;3.50;;;;;;;6.21;100.00;100388.81;4995437;28;20068;-70
2022/12/07 11:22:18;;;;;;;9.38;3.88;;;;;;;6.22;99.70;100394.03;4995286;28;20065;-69
2022/12/07 11:25:30;;;;;;;7.07;3.63;;;;;;;6.18;99.70;100386.28;4991576;28;20140;-73
2022/12/07 11:28:02;;;;;;;6.78;3.50;;;;;;;6.13;100.00;100375.94;5014627;28;20447;-71
2022/12/07 11:30:35;;;;;;;7.72;3.80;;;;;;;6.08;98.83;100369.06;5002355;28;20482;-71
2022/12/07 11:33:46;;;;;;;9.30;3.47;;;;;;;6.04;99.94;100372.69;4997229;28;20134;-71
2022/12/07 11:36:31;;;;;;;7.80;4.05;;;;;;;6.10;98.85;100373.38;4974701;28;20046;-69
2022/12/07 11:39:04;;;;;;;5.65;3.88;;;;;;;6.20;97.68;100368.69;4997956;28;20054;-71
2022/12/07 11:41:38;;;;;;;6.97;3.67;;;;;;;6.20;97.33;100366.06;5007352;28;20137;-71
2022/12/07 11:44:19;;;;;;;6.97;3.50;;;;;;;6.24;97.09;100371.19;4997966;28;20172;-71